sensor_id;sensor_type;location;lat;lon;timestamp;P1;durP1;ratioP1;P2;durP2;ratioP2
50976;SDS011;36992;48.200;12.418;2023-12-14T00:00:06;0.30;;;0.20;;
50976;SDS011;36992;48.200;12.418;2023-12-14T00:02:33;0.80;;;0.20;;
50976;SDS011;36992;48.200;12.418;2023-12-14T00:05:00;0.52;;;0.13;;
50976;SDS011;36992;48.200;12.418;2023-12-14T00:07:28;0.30;;;0.15;;
50976;SDS011;36992;48.200;12.418;2023-12-14T00:09:53;0.60;;;0.30;;
50976;SDS011;36992;48.200;12.418;2023-12-14T00:12:20;0.70;;;0.20;;
50976;SDS011;36992;48.200;12.418;2023-12-14T00:14:46;0.57;;;0.10;;
50976;SDS011;36992;48.200;12.418;2023-12-14T00:17:13;1.48;;;0.20;;
50976;SDS011;36992;48.200;12.418;2023-12-14T00:19:39;0.47;;;0.15;;
50976;SDS011;36992;48.200;12.418;2023-12-14T00:22:06;3.20;;;0.20;;
50976;SDS011;36992;48.200;12.418;2023-12-14T00:24:34;0.40;;;0.20;;
50976;SDS011;36992;48.200;12.418;2023-12-14T00:27:00;0.17;;;0.10;;
50976;SDS011;36992;48.200;12.418;2023-12-14T00:29:27;0.52;;;0.10;;
50976;SDS011;36992;48.200;12.418;2023-12-14T00:31:53;2.83;;;0.20;;
50976;SDS011;36992;48.200;12.418;2023-12-14T00:34:20;0.63;;;0.20;;
50976;SDS011;36992;48.200;12.418;2023-12-14T00:36:46;0.85;;;0.20;;
50976;SDS011;36992;48.200;12.418;2023-12-14T00:39:13;1.23;;;0.63;;
50976;SDS011;36992;48.200;12.418;2023-12-14T00:41:41;0.60;;;0.20;;
50976;SDS011;36992;48.200;12.418;2023-12-14T00:44:07;0.40;;;0.10;;
50976;SDS011;36992;48.200;12.418;2023-12-14T00:46:34;0.95;;;0.28;;
50976;SDS011;36992;48.200;12.418;2023-12-14T00:49:00;0.55;;;0.20;;
50976;SDS011;36992;48.200;12.418;2023-12-14T00:51:27;0.50;;;0.20;;
50976;SDS011;36992;48.200;12.418;2023-12-14T00:53:54;3.08;;;0.88;;
50976;SDS011;36992;48.200;12.418;2023-12-14T00:56:20;0.73;;;0.20;;
50976;SDS011;36992;48.200;12.418;2023-12-14T00:58:48;1.88;;;0.77;;
50976;SDS011;36992;48.200;12.418;2023-12-14T01:01:14;0.65;;;0.20;;
50976;SDS011;36992;48.200;12.418;2023-12-14T01:03:41;0.50;;;0.10;;
50976;SDS011;36992;48.200;12.418;2023-12-14T01:06:07;0.40;;;0.20;;
50976;SDS011;36992;48.200;12.418;2023-12-14T01:08:34;0.60;;;0.20;;
50976;SDS011;36992;48.200;12.418;2023-12-14T01:11:00;0.40;;;0.10;;
50976;SDS011;36992;48.200;12.418;2023-12-14T01:13:27;0.75;;;0.20;;
50976;SDS011;36992;48.200;12.418;2023-12-14T01:15:55;0.40;;;0.10;;
50976;SDS011;36992;48.200;12.418;2023-12-14T01:18:21;1.38;;;0.10;;
50976;SDS011;36992;48.200;12.418;2023-12-14T01:20:48;0.47;;;0.17;;
50976;SDS011;36992;48.200;12.418;2023-12-14T01:23:14;0.47;;;0.10;;
50976;SDS011;36992;48.200;12.418;2023-12-14T01:25:41;0.50;;;0.10;;
50976;SDS011;36992;48.200;12.418;2023-12-14T01:28:07;0.60;;;0.10;;
50976;SDS011;36992;48.200;12.418;2023-12-14T01:30:34;0.68;;;0.10;;
50976;SDS011;36992;48.200;12.418;2023-12-14T01:33:02;0.50;;;0.20;;
50976;SDS011;36992;48.200;12.418;2023-12-14T01:35:29;0.80;;;0.20;;
50976;SDS011;36992;48.200;12.418;2023-12-14T01:37:56;0.20;;;0.10;;
50976;SDS011;36992;48.200;12.418;2023-12-14T01:40:22;0.70;;;0.13;;
50976;SDS011;36992;48.200;12.418;2023-12-14T01:42:49;0.57;;;0.20;;
50976;SDS011;36992;48.200;12.418;2023-12-14T01:45:15;0.38;;;0.10;;
50976;SDS011;36992;48.200;12.418;2023-12-14T01:47:42;0.57;;;0.20;;
50976;SDS011;36992;48.200;12.418;2023-12-14T01:50:10;0.40;;;0.10;;
50976;SDS011;36992;48.200;12.418;2023-12-14T01:52:36;0.55;;;0.10;;
50976;SDS011;36992;48.200;12.418;2023-12-14T01:55:03;0.40;;;0.20;;
50976;SDS011;36992;48.200;12.418;2023-12-14T01:57:30;0.40;;;0.10;;
50976;SDS011;36992;48.200;12.418;2023-12-14T01:59:57;0.28;;;0.10;;
50976;SDS011;36992;48.200;12.418;2023-12-14T02:02:23;0.43;;;0.13;;
50976;SDS011;36992;48.200;12.418;2023-12-14T02:04:50;1.25;;;0.30;;
50976;SDS011;36992;48.200;12.418;2023-12-14T02:07:18;1.67;;;0.40;;
50976;SDS011;36992;48.200;12.418;2023-12-14T02:09:44;0.60;;;0.25;;
50976;SDS011;36992;48.200;12.418;2023-12-14T02:12:11;0.35;;;0.13;;
50976;SDS011;36992;48.200;12.418;2023-12-14T02:14:37;0.75;;;0.20;;
50976;SDS011;36992;48.200;12.418;2023-12-14T02:17:04;0.85;;;0.32;;
50976;SDS011;36992;48.200;12.418;2023-12-14T02:19:30;0.50;;;0.20;;
50976;SDS011;36992;48.200;12.418;2023-12-14T02:21:57;0.30;;;0.10;;
50976;SDS011;36992;48.200;12.418;2023-12-14T02:24:25;0.40;;;0.15;;
50976;SDS011;36992;48.200;12.418;2023-12-14T02:26:51;0.20;;;0.10;;
50976;SDS011;36992;48.200;12.418;2023-12-14T02:29:18;0.30;;;0.20;;
50976;SDS011;36992;48.200;12.418;2023-12-14T02:31:44;0.35;;;0.20;;
50976;SDS011;36992;48.200;12.418;2023-12-14T02:34:12;0.60;;;0.30;;
50976;SDS011;36992;48.200;12.418;2023-12-14T02:36:39;0.32;;;0.13;;
50976;SDS011;36992;48.200;12.418;2023-12-14T02:39:06;0.57;;;0.20;;
50976;SDS011;36992;48.200;12.418;2023-12-14T02:41:34;0.30;;;0.20;;
50976;SDS011;36992;48.200;12.418;2023-12-14T02:44:00;0.88;;;0.17;;
50976;SDS011;36992;48.200;12.418;2023-12-14T02:46:27;2.85;;;0.30;;
50976;SDS011;36992;48.200;12.418;2023-12-14T02:48:53;0.60;;;0.20;;
50976;SDS011;36992;48.200;12.418;2023-12-14T02:51:20;0.82;;;0.20;;
50976;SDS011;36992;48.200;12.418;2023-12-14T02:53:46;0.55;;;0.20;;
50976;SDS011;36992;48.200;12.418;2023-12-14T02:56:13;0.40;;;0.17;;
50976;SDS011;36992;48.200;12.418;2023-12-14T02:58:40;0.30;;;0.10;;
50976;SDS011;36992;48.200;12.418;2023-12-14T03:01:07;0.25;;;0.17;;
50976;SDS011;36992;48.200;12.418;2023-12-14T03:03:34;0.57;;;0.22;;
50976;SDS011;36992;48.200;12.418;2023-12-14T03:06:00;0.45;;;0.20;;
50976;SDS011;36992;48.200;12.418;2023-12-14T03:08:27;0.30;;;0.20;;
50976;SDS011;36992;48.200;12.418;2023-12-14T03:10:53;0.45;;;0.20;;
50976;SDS011;36992;48.200;12.418;2023-12-14T03:13:20;0.73;;;0.20;;
50976;SDS011;36992;48.200;12.418;2023-12-14T03:15:48;0.73;;;0.28;;
50976;SDS011;36992;48.200;12.418;2023-12-14T03:18:15;0.57;;;0.28;;
50976;SDS011;36992;48.200;12.418;2023-12-14T03:20:41;0.50;;;0.20;;
50976;SDS011;36992;48.200;12.418;2023-12-14T03:23:08;0.70;;;0.30;;
50976;SDS011;36992;48.200;12.418;2023-12-14T03:25:34;0.40;;;0.10;;
50976;SDS011;36992;48.200;12.418;2023-12-14T03:28:01;0.50;;;0.20;;
50976;SDS011;36992;48.200;12.418;2023-12-14T03:30:27;0.85;;;0.25;;
50976;SDS011;36992;48.200;12.418;2023-12-14T03:32:55;0.47;;;0.20;;
50976;SDS011;36992;48.200;12.418;2023-12-14T03:35:22;0.30;;;0.10;;
50976;SDS011;36992;48.200;12.418;2023-12-14T03:37:48;0.65;;;0.20;;
50976;SDS011;36992;48.200;12.418;2023-12-14T03:40:15;0.50;;;0.10;;
50976;SDS011;36992;48.200;12.418;2023-12-14T03:42:41;0.65;;;0.20;;
50976;SDS011;36992;48.200;12.418;2023-12-14T03:45:08;0.52;;;0.20;;
50976;SDS011;36992;48.200;12.418;2023-12-14T03:47:35;0.45;;;0.20;;
50976;SDS011;36992;48.200;12.418;2023-12-14T03:50:04;0.80;;;0.20;;
50976;SDS011;36992;48.200;12.418;2023-12-14T03:52:31;0.43;;;0.20;;
50976;SDS011;36992;48.200;12.418;2023-12-14T03:54:58;0.93;;;0.20;;
50976;SDS011;36992;48.200;12.418;2023-12-14T03:57:24;0.50;;;0.20;;
50976;SDS011;36992;48.200;12.418;2023-12-14T03:59:51;0.55;;;0.20;;
50976;SDS011;36992;48.200;12.418;2023-12-14T04:02:17;0.45;;;0.17;;
50976;SDS011;36992;48.200;12.418;2023-12-14T04:04:44;1.45;;;0.30;;
50976;SDS011;36992;48.200;12.418;2023-12-14T04:07:13;0.30;;;0.10;;
50976;SDS011;36992;48.200;12.418;2023-12-14T04:09:40;0.65;;;0.30;;
50976;SDS011;36992;48.200;12.418;2023-12-14T04:12:06;1.42;;;0.40;;
50976;SDS011;36992;48.200;12.418;2023-12-14T04:14:33;0.75;;;0.20;;
50976;SDS011;36992;48.200;12.418;2023-12-14T04:16:59;0.65;;;0.20;;
50976;SDS011;36992;48.200;12.418;2023-12-14T04:19:26;1.17;;;0.38;;
50976;SDS011;36992;48.200;12.418;2023-12-14T04:21:52;0.80;;;0.20;;
50976;SDS011;36992;48.200;12.418;2023-12-14T04:24:20;0.40;;;0.20;;
50976;SDS011;36992;48.200;12.418;2023-12-14T04:26:47;0.65;;;0.20;;
50976;SDS011;36992;48.200;12.418;2023-12-14T04:29:13;0.50;;;0.30;;
50976;SDS011;36992;48.200;12.418;2023-12-14T04:31:40;0.60;;;0.30;;
50976;SDS011;36992;48.200;12.418;2023-12-14T04:34:06;0.30;;;0.20;;
50976;SDS011;36992;48.200;12.418;2023-12-14T04:36:38;1.10;;;0.50;;
50976;SDS011;36992;48.200;12.418;2023-12-14T04:39:05;0.95;;;0.73;;
50976;SDS011;36992;48.200;12.418;2023-12-14T04:41:33;0.60;;;0.30;;
50976;SDS011;36992;48.200;12.418;2023-12-14T04:43:59;0.95;;;0.40;;
50976;SDS011;36992;48.200;12.418;2023-12-14T04:46:26;0.57;;;0.30;;
50976;SDS011;36992;48.200;12.418;2023-12-14T04:48:52;0.52;;;0.20;;
50976;SDS011;36992;48.200;12.418;2023-12-14T04:51:19;1.15;;;0.47;;
50976;SDS011;36992;48.200;12.418;2023-12-14T04:53:45;0.73;;;0.30;;
50976;SDS011;36992;48.200;12.418;2023-12-14T04:56:12;0.80;;;0.28;;
50976;SDS011;36992;48.200;12.418;2023-12-14T04:58:41;1.80;;;0.70;;
50976;SDS011;36992;48.200;12.418;2023-12-14T05:01:08;3.65;;;0.90;;
50976;SDS011;36992;48.200;12.418;2023-12-14T05:03:35;2.33;;;0.85;;
50976;SDS011;36992;48.200;12.418;2023-12-14T05:06:01;1.40;;;0.70;;
50976;SDS011;36992;48.200;12.418;2023-12-14T05:08:28;2.83;;;1.30;;
50976;SDS011;36992;48.200;12.418;2023-12-14T05:10:55;1.38;;;0.80;;
50976;SDS011;36992;48.200;12.418;2023-12-14T05:13:21;3.83;;;2.10;;
50976;SDS011;36992;48.200;12.418;2023-12-14T05:15:49;2.42;;;1.17;;
50976;SDS011;36992;48.200;12.418;2023-12-14T05:18:16;2.45;;;1.27;;
50976;SDS011;36992;48.200;12.418;2023-12-14T05:20:43;2.42;;;0.90;;
50976;SDS011;36992;48.200;12.418;2023-12-14T05:23:11;1.77;;;1.15;;
50976;SDS011;36992;48.200;12.418;2023-12-14T05:25:38;2.30;;;1.40;;
50976;SDS011;36992;48.200;12.418;2023-12-14T05:28:04;2.80;;;1.30;;
50976;SDS011;36992;48.200;12.418;2023-12-14T05:30:31;2.45;;;1.50;;
50976;SDS011;36992;48.200;12.418;2023-12-14T05:32:59;2.58;;;1.38;;
50976;SDS011;36992;48.200;12.418;2023-12-14T05:35:26;2.40;;;1.50;;
50976;SDS011;36992;48.200;12.418;2023-12-14T05:37:53;3.08;;;1.10;;
50976;SDS011;36992;48.200;12.418;2023-12-14T05:40:19;3.05;;;1.00;;
50976;SDS011;36992;48.200;12.418;2023-12-14T05:42:46;1.70;;;1.00;;
50976;SDS011;36992;48.200;12.418;2023-12-14T05:45:12;2.38;;;1.48;;
50976;SDS011;36992;48.200;12.418;2023-12-14T05:47:39;2.97;;;1.90;;
50976;SDS011;36992;48.200;12.418;2023-12-14T05:50:08;2.42;;;1.40;;
50976;SDS011;36992;48.200;12.418;2023-12-14T05:52:35;2.50;;;1.77;;
50976;SDS011;36992;48.200;12.418;2023-12-14T05:55:02;3.28;;;1.30;;
50976;SDS011;36992;48.200;12.418;2023-12-14T05:57:29;5.05;;;2.20;;
50976;SDS011;36992;48.200;12.418;2023-12-14T05:59:55;3.13;;;1.95;;
50976;SDS011;36992;48.200;12.418;2023-12-14T06:02:22;5.47;;;1.85;;
50976;SDS011;36992;48.200;12.418;2023-12-14T06:04:49;3.80;;;2.50;;
50976;SDS011;36992;48.200;12.418;2023-12-14T06:07:17;3.50;;;2.20;;
50976;SDS011;36992;48.200;12.418;2023-12-14T06:09:43;5.35;;;3.40;;
50976;SDS011;36992;48.200;12.418;2023-12-14T06:12:10;3.00;;;2.15;;
50976;SDS011;36992;48.200;12.418;2023-12-14T06:14:37;3.55;;;2.22;;
50976;SDS011;36992;48.200;12.418;2023-12-14T06:17:03;3.75;;;2.65;;
50976;SDS011;36992;48.200;12.418;2023-12-14T06:19:30;4.18;;;2.63;;
50976;SDS011;36992;48.200;12.418;2023-12-14T06:21:57;3.80;;;2.40;;
50976;SDS011;36992;48.200;12.418;2023-12-14T06:24:25;4.15;;;2.60;;
50976;SDS011;36992;48.200;12.418;2023-12-14T06:26:51;5.88;;;3.50;;
50976;SDS011;36992;48.200;12.418;2023-12-14T06:29:18;4.35;;;3.10;;
50976;SDS011;36992;48.200;12.418;2023-12-14T06:31:45;4.60;;;3.10;;
50976;SDS011;36992;48.200;12.418;2023-12-14T06:34:12;5.57;;;2.95;;
50976;SDS011;36992;48.200;12.418;2023-12-14T06:36:41;3.75;;;2.65;;
50976;SDS011;36992;48.200;12.418;2023-12-14T06:39:08;4.35;;;3.28;;
50976;SDS011;36992;48.200;12.418;2023-12-14T06:41:37;4.18;;;2.65;;
50976;SDS011;36992;48.200;12.418;2023-12-14T06:44:04;4.25;;;2.65;;
50976;SDS011;36992;48.200;12.418;2023-12-14T06:46:30;4.47;;;2.70;;
50976;SDS011;36992;48.200;12.418;2023-12-14T06:48:57;4.63;;;3.13;;
50976;SDS011;36992;48.200;12.418;2023-12-14T06:51:23;3.95;;;2.60;;
50976;SDS011;36992;48.200;12.418;2023-12-14T06:53:50;3.40;;;2.22;;
50976;SDS011;36992;48.200;12.418;2023-12-14T06:56:17;4.38;;;2.40;;
50976;SDS011;36992;48.200;12.418;2023-12-14T06:58:45;5.60;;;2.60;;
50976;SDS011;36992;48.200;12.418;2023-12-14T07:01:14;2.65;;;1.75;;
50976;SDS011;36992;48.200;12.418;2023-12-14T07:03:41;4.28;;;2.70;;
50976;SDS011;36992;48.200;12.418;2023-12-14T07:06:11;4.55;;;2.80;;
50976;SDS011;36992;48.200;12.418;2023-12-14T07:08:38;3.55;;;2.15;;
50976;SDS011;36992;48.200;12.418;2023-12-14T07:11:05;3.72;;;2.40;;
50976;SDS011;36992;48.200;12.418;2023-12-14T07:13:32;5.07;;;2.85;;
50976;SDS011;36992;48.200;12.418;2023-12-14T07:16:00;5.03;;;3.42;;
50976;SDS011;36992;48.200;12.418;2023-12-14T07:18:26;5.70;;;3.95;;
50976;SDS011;36992;48.200;12.418;2023-12-14T07:20:53;5.82;;;3.65;;
50976;SDS011;36992;48.200;12.418;2023-12-14T07:23:19;5.35;;;3.22;;
50976;SDS011;36992;48.200;12.418;2023-12-14T07:25:46;5.53;;;3.22;;
50976;SDS011;36992;48.200;12.418;2023-12-14T07:28:12;4.50;;;3.13;;
50976;SDS011;36992;48.200;12.418;2023-12-14T07:30:39;5.88;;;2.83;;
50976;SDS011;36992;48.200;12.418;2023-12-14T07:33:07;5.47;;;3.83;;
50976;SDS011;36992;48.200;12.418;2023-12-14T07:35:33;4.18;;;2.78;;
50976;SDS011;36992;48.200;12.418;2023-12-14T07:38:00;4.65;;;2.95;;
50976;SDS011;36992;48.200;12.418;2023-12-14T07:40:27;4.28;;;2.60;;
50976;SDS011;36992;48.200;12.418;2023-12-14T07:42:54;3.15;;;1.92;;
50976;SDS011;36992;48.200;12.418;2023-12-14T07:45:20;4.40;;;2.47;;
50976;SDS011;36992;48.200;12.418;2023-12-14T07:47:47;4.65;;;3.35;;
50976;SDS011;36992;48.200;12.418;2023-12-14T07:50:15;5.43;;;2.45;;
50976;SDS011;36992;48.200;12.418;2023-12-14T07:52:41;3.00;;;2.17;;
50976;SDS011;36992;48.200;12.418;2023-12-14T07:55:08;5.07;;;3.10;;
50976;SDS011;36992;48.200;12.418;2023-12-14T07:57:35;5.55;;;2.85;;
50976;SDS011;36992;48.200;12.418;2023-12-14T08:00:01;5.32;;;3.25;;
50976;SDS011;36992;48.200;12.418;2023-12-14T08:02:29;6.25;;;3.13;;
50976;SDS011;36992;48.200;12.418;2023-12-14T08:04:55;4.70;;;3.05;;
50976;SDS011;36992;48.200;12.418;2023-12-14T08:07:23;6.15;;;2.97;;
50976;SDS011;36992;48.200;12.418;2023-12-14T08:09:54;4.85;;;3.03;;
50976;SDS011;36992;48.200;12.418;2023-12-14T08:12:20;3.95;;;2.35;;
50976;SDS011;36992;48.200;12.418;2023-12-14T08:14:47;3.65;;;2.42;;
50976;SDS011;36992;48.200;12.418;2023-12-14T08:17:14;3.30;;;2.10;;
50976;SDS011;36992;48.200;12.418;2023-12-14T08:19:41;4.50;;;1.92;;
50976;SDS011;36992;48.200;12.418;2023-12-14T08:22:07;3.97;;;2.47;;
50976;SDS011;36992;48.200;12.418;2023-12-14T08:24:37;3.53;;;2.10;;
50976;SDS011;36992;48.200;12.418;2023-12-14T08:27:04;3.83;;;2.13;;
50976;SDS011;36992;48.200;12.418;2023-12-14T08:29:31;3.13;;;1.77;;
50976;SDS011;36992;48.200;12.418;2023-12-14T08:31:57;2.92;;;1.70;;
50976;SDS011;36992;48.200;12.418;2023-12-14T08:34:24;4.60;;;2.13;;
50976;SDS011;36992;48.200;12.418;2023-12-14T08:36:51;4.10;;;2.20;;
50976;SDS011;36992;48.200;12.418;2023-12-14T08:39:18;3.05;;;1.73;;
50976;SDS011;36992;48.200;12.418;2023-12-14T08:41:46;5.90;;;2.03;;
50976;SDS011;36992;48.200;12.418;2023-12-14T08:44:13;3.08;;;1.83;;
50976;SDS011;36992;48.200;12.418;2023-12-14T08:46:40;4.30;;;1.98;;
50976;SDS011;36992;48.200;12.418;2023-12-14T08:49:08;3.25;;;1.85;;
50976;SDS011;36992;48.200;12.418;2023-12-14T08:51:34;4.97;;;2.00;;
50976;SDS011;36992;48.200;12.418;2023-12-14T08:54:01;2.95;;;1.83;;
50976;SDS011;36992;48.200;12.418;2023-12-14T08:56:27;3.85;;;2.25;;
50976;SDS011;36992;48.200;12.418;2023-12-14T08:58:55;3.35;;;2.30;;
50976;SDS011;36992;48.200;12.418;2023-12-14T09:01:22;3.38;;;1.85;;
50976;SDS011;36992;48.200;12.418;2023-12-14T09:03:49;3.97;;;2.08;;
50976;SDS011;36992;48.200;12.418;2023-12-14T09:06:16;3.00;;;1.80;;
50976;SDS011;36992;48.200;12.418;2023-12-14T09:08:43;4.85;;;2.30;;
50976;SDS011;36992;48.200;12.418;2023-12-14T09:11:10;4.00;;;2.58;;
50976;SDS011;36992;48.200;12.418;2023-12-14T09:13:37;4.50;;;2.80;;
50976;SDS011;36992;48.200;12.418;2023-12-14T09:16:05;4.22;;;2.80;;
50976;SDS011;36992;48.200;12.418;2023-12-14T09:18:32;3.13;;;2.03;;
50976;SDS011;36992;48.200;12.418;2023-12-14T09:20:59;3.38;;;1.92;;
50976;SDS011;36992;48.200;12.418;2023-12-14T09:23:25;4.45;;;2.50;;
50976;SDS011;36992;48.200;12.418;2023-12-14T09:25:52;4.45;;;2.40;;
50976;SDS011;36992;48.200;12.418;2023-12-14T09:28:21;2.83;;;1.77;;
50976;SDS011;36992;48.200;12.418;2023-12-14T09:30:47;3.58;;;1.98;;
50976;SDS011;36992;48.200;12.418;2023-12-14T09:33:15;4.35;;;2.45;;
50976;SDS011;36992;48.200;12.418;2023-12-14T09:35:42;4.45;;;3.05;;
50976;SDS011;36992;48.200;12.418;2023-12-14T09:38:08;4.43;;;2.42;;
50976;SDS011;36992;48.200;12.418;2023-12-14T09:40:38;5.38;;;3.10;;
50976;SDS011;36992;48.200;12.418;2023-12-14T09:43:05;4.63;;;3.38;;
50976;SDS011;36992;48.200;12.418;2023-12-14T09:45:33;3.45;;;2.38;;
50976;SDS011;36992;48.200;12.418;2023-12-14T09:48:02;6.13;;;2.78;;
50976;SDS011;36992;48.200;12.418;2023-12-14T09:50:30;4.00;;;2.60;;
50976;SDS011;36992;48.200;12.418;2023-12-14T09:53:00;5.32;;;2.63;;
50976;SDS011;36992;48.200;12.418;2023-12-14T09:55:26;4.57;;;2.47;;
50976;SDS011;36992;48.200;12.418;2023-12-14T09:57:53;3.92;;;2.33;;
50976;SDS011;36992;48.200;12.418;2023-12-14T10:00:32;3.08;;;2.00;;
50976;SDS011;36992;48.200;12.418;2023-12-14T10:03:08;4.05;;;2.17;;
50976;SDS011;36992;48.200;12.418;2023-12-14T10:05:45;3.53;;;2.08;;
50976;SDS011;36992;48.200;12.418;2023-12-14T10:08:13;3.15;;;2.00;;
50976;SDS011;36992;48.200;12.418;2023-12-14T10:10:40;3.67;;;2.15;;
50976;SDS011;36992;48.200;12.418;2023-12-14T10:13:06;4.50;;;1.98;;
50976;SDS011;36992;48.200;12.418;2023-12-14T10:15:40;3.35;;;1.80;;
50976;SDS011;36992;48.200;12.418;2023-12-14T10:18:07;3.63;;;1.95;;
50976;SDS011;36992;48.200;12.418;2023-12-14T10:20:33;3.92;;;1.80;;
50976;SDS011;36992;48.200;12.418;2023-12-14T10:23:03;3.42;;;1.92;;
50976;SDS011;36992;48.200;12.418;2023-12-14T10:25:30;9.50;;;3.38;;
50976;SDS011;36992;48.200;12.418;2023-12-14T10:27:57;6.40;;;2.50;;
50976;SDS011;36992;48.200;12.418;2023-12-14T10:30:25;7.40;;;2.58;;
50976;SDS011;36992;48.200;12.418;2023-12-14T10:32:52;3.85;;;2.90;;
50976;SDS011;36992;48.200;12.418;2023-12-14T10:35:19;4.82;;;2.47;;
50976;SDS011;36992;48.200;12.418;2023-12-14T10:37:48;3.88;;;2.20;;
50976;SDS011;36992;48.200;12.418;2023-12-14T10:40:17;2.97;;;2.00;;
50976;SDS011;36992;48.200;12.418;2023-12-14T10:42:44;5.10;;;1.77;;
50976;SDS011;36992;48.200;12.418;2023-12-14T10:45:12;2.17;;;1.27;;
50976;SDS011;36992;48.200;12.418;2023-12-14T10:47:43;3.05;;;1.60;;
50976;SDS011;36992;48.200;12.418;2023-12-14T10:50:10;2.90;;;1.58;;
50976;SDS011;36992;48.200;12.418;2023-12-14T10:52:37;5.32;;;1.90;;
50976;SDS011;36992;48.200;12.418;2023-12-14T10:55:05;3.38;;;1.60;;
50976;SDS011;36992;48.200;12.418;2023-12-14T10:57:35;2.10;;;1.10;;
50976;SDS011;36992;48.200;12.418;2023-12-14T11:00:02;2.58;;;1.67;;
50976;SDS011;36992;48.200;12.418;2023-12-14T11:02:37;4.20;;;1.50;;
50976;SDS011;36992;48.200;12.418;2023-12-14T11:05:05;2.50;;;1.20;;
50976;SDS011;36992;48.200;12.418;2023-12-14T11:07:47;1.85;;;1.20;;
50976;SDS011;36992;48.200;12.418;2023-12-14T11:10:22;3.13;;;1.20;;
50976;SDS011;36992;48.200;12.418;2023-12-14T11:12:51;3.00;;;1.20;;
50976;SDS011;36992;48.200;12.418;2023-12-14T11:15:21;2.92;;;1.20;;
50976;SDS011;36992;48.200;12.418;2023-12-14T11:20:50;3.22;;;1.08;;
50976;SDS011;36992;48.200;12.418;2023-12-14T11:23:26;3.08;;;1.58;;
50976;SDS011;36992;48.200;12.418;2023-12-14T11:25:57;3.20;;;1.15;;
50976;SDS011;36992;48.200;12.418;2023-12-14T11:28:26;2.75;;;0.85;;
50976;SDS011;36992;48.200;12.418;2023-12-14T11:30:54;1.48;;;0.60;;
50976;SDS011;36992;48.200;12.418;2023-12-14T11:33:20;2.28;;;0.98;;
50976;SDS011;36992;48.200;12.418;2023-12-14T11:35:47;3.17;;;1.02;;
50976;SDS011;36992;48.200;12.418;2023-12-14T11:38:14;2.92;;;0.73;;
50976;SDS011;36992;48.200;12.418;2023-12-14T11:40:41;1.83;;;0.60;;
50976;SDS011;36992;48.200;12.418;2023-12-14T11:43:08;1.10;;;0.55;;
50976;SDS011;36992;48.200;12.418;2023-12-14T11:45:36;2.13;;;0.70;;
50976;SDS011;36992;48.200;12.418;2023-12-14T11:48:06;1.10;;;0.43;;
50976;SDS011;36992;48.200;12.418;2023-12-14T11:50:35;2.67;;;1.00;;
50976;SDS011;36992;48.200;12.418;2023-12-14T11:53:02;1.60;;;0.65;;
50976;SDS011;36992;48.200;12.418;2023-12-14T11:55:29;1.55;;;0.77;;
50976;SDS011;36992;48.200;12.418;2023-12-14T11:57:57;1.63;;;0.70;;
50976;SDS011;36992;48.200;12.418;2023-12-14T12:00:25;1.52;;;0.68;;
50976;SDS011;36992;48.200;12.418;2023-12-14T12:02:53;2.53;;;0.88;;
50976;SDS011;36992;48.200;12.418;2023-12-14T12:05:36;1.92;;;0.60;;
50976;SDS011;36992;48.200;12.418;2023-12-14T12:08:04;1.25;;;0.40;;
50976;SDS011;36992;48.200;12.418;2023-12-14T12:10:31;3.40;;;0.57;;
50976;SDS011;36992;48.200;12.418;2023-12-14T12:12:59;2.75;;;0.40;;
50976;SDS011;36992;48.200;12.418;2023-12-14T12:15:27;0.43;;;0.20;;
50976;SDS011;36992;48.200;12.418;2023-12-14T12:17:55;3.38;;;0.95;;
50976;SDS011;36992;48.200;12.418;2023-12-14T12:20:21;1.45;;;0.70;;
50976;SDS011;36992;48.200;12.418;2023-12-14T12:22:48;1.83;;;0.70;;
50976;SDS011;36992;48.200;12.418;2023-12-14T12:25:15;1.35;;;0.30;;
50976;SDS011;36992;48.200;12.418;2023-12-14T12:27:41;2.47;;;0.73;;
50976;SDS011;36992;48.200;12.418;2023-12-14T12:30:09;1.05;;;0.40;;
50976;SDS011;36992;48.200;12.418;2023-12-14T12:32:37;0.93;;;0.30;;
50976;SDS011;36992;48.200;12.418;2023-12-14T12:35:05;0.88;;;0.40;;
50976;SDS011;36992;48.200;12.418;2023-12-14T12:37:33;1.23;;;0.30;;
50976;SDS011;36992;48.200;12.418;2023-12-14T12:39:59;1.20;;;0.30;;
50976;SDS011;36992;48.200;12.418;2023-12-14T12:42:26;1.33;;;0.35;;
50976;SDS011;36992;48.200;12.418;2023-12-14T12:44:54;2.15;;;0.30;;
50976;SDS011;36992;48.200;12.418;2023-12-14T12:47:21;0.88;;;0.30;;
50976;SDS011;36992;48.200;12.418;2023-12-14T12:49:47;0.93;;;0.40;;
50976;SDS011;36992;48.200;12.418;2023-12-14T12:52:16;2.08;;;0.32;;
50976;SDS011;36992;48.200;12.418;2023-12-14T12:54:43;1.35;;;0.50;;
50976;SDS011;36992;48.200;12.418;2023-12-14T12:57:09;1.88;;;0.47;;
50976;SDS011;36992;48.200;12.418;2023-12-14T12:59:36;1.65;;;0.30;;
50976;SDS011;36992;48.200;12.418;2023-12-14T13:02:02;0.98;;;0.32;;
50976;SDS011;36992;48.200;12.418;2023-12-14T13:04:29;2.70;;;0.57;;
50976;SDS011;36992;48.200;12.418;2023-12-14T13:06:56;3.08;;;0.60;;
50976;SDS011;36992;48.200;12.418;2023-12-14T13:09:25;1.75;;;0.80;;
50976;SDS011;36992;48.200;12.418;2023-12-14T13:11:51;2.90;;;0.90;;
50976;SDS011;36992;48.200;12.418;2023-12-14T13:14:18;2.45;;;0.73;;
50976;SDS011;36992;48.200;12.418;2023-12-14T13:16:45;2.90;;;0.90;;
50976;SDS011;36992;48.200;12.418;2023-12-14T13:19:12;2.00;;;0.60;;
50976;SDS011;36992;48.200;12.418;2023-12-14T13:21:39;3.05;;;1.00;;
50976;SDS011;36992;48.200;12.418;2023-12-14T13:24:06;1.92;;;0.70;;
50976;SDS011;36992;48.200;12.418;2023-12-14T13:26:34;3.47;;;0.80;;
50976;SDS011;36992;48.200;12.418;2023-12-14T13:29:01;2.53;;;0.88;;
50976;SDS011;36992;48.200;12.418;2023-12-14T13:31:28;2.63;;;0.90;;
50976;SDS011;36992;48.200;12.418;2023-12-14T13:33:54;2.08;;;0.68;;
50976;SDS011;36992;48.200;12.418;2023-12-14T13:36:21;1.17;;;0.57;;
50976;SDS011;36992;48.200;12.418;2023-12-14T13:38:48;1.30;;;0.50;;
50976;SDS011;36992;48.200;12.418;2023-12-14T13:41:15;8.60;;;1.50;;
50976;SDS011;36992;48.200;12.418;2023-12-14T13:43:43;1.30;;;0.60;;
50976;SDS011;36992;48.200;12.418;2023-12-14T13:46:11;1.70;;;0.47;;
50976;SDS011;36992;48.200;12.418;2023-12-14T13:48:38;1.67;;;0.40;;
50976;SDS011;36992;48.200;12.418;2023-12-14T13:51:04;2.08;;;0.63;;
50976;SDS011;36992;48.200;12.418;2023-12-14T13:53:32;2.20;;;0.50;;
50976;SDS011;36992;48.200;12.418;2023-12-14T13:55:59;1.70;;;0.57;;
50976;SDS011;36992;48.200;12.418;2023-12-14T13:58:26;1.05;;;0.47;;
50976;SDS011;36992;48.200;12.418;2023-12-14T14:00:53;1.70;;;0.50;;
50976;SDS011;36992;48.200;12.418;2023-12-14T14:03:20;2.85;;;1.15;;
50976;SDS011;36992;48.200;12.418;2023-12-14T14:05:47;3.75;;;0.90;;
50976;SDS011;36992;48.200;12.418;2023-12-14T14:08:14;3.65;;;1.35;;
50976;SDS011;36992;48.200;12.418;2023-12-14T14:10:40;3.28;;;1.30;;
50976;SDS011;36992;48.200;12.418;2023-12-14T14:13:07;2.78;;;1.35;;
50976;SDS011;36992;48.200;12.418;2023-12-14T14:15:33;1.85;;;0.80;;
50976;SDS011;36992;48.200;12.418;2023-12-14T14:18:02;2.35;;;0.50;;
50976;SDS011;36992;48.200;12.418;2023-12-14T14:20:28;2.83;;;0.63;;
50976;SDS011;36992;48.200;12.418;2023-12-14T14:22:55;1.77;;;0.60;;
50976;SDS011;36992;48.200;12.418;2023-12-14T14:25:24;1.88;;;0.63;;
50976;SDS011;36992;48.200;12.418;2023-12-14T14:27:50;1.92;;;0.60;;
50976;SDS011;36992;48.200;12.418;2023-12-14T14:30:17;1.23;;;0.47;;
50976;SDS011;36992;48.200;12.418;2023-12-14T14:32:44;1.63;;;0.50;;
50976;SDS011;36992;48.200;12.418;2023-12-14T14:35:12;1.13;;;0.43;;